Tiempo atmosférico en la estación meteorológica de Azuaga, Badajoz (550 m.)



Fecha
DESCASC
Temp. máxima en grados centígrados (hora)
DESCASC
Temp. mínima en grados centígrados (hora)
DESCASC
Temp. media en grados centígrados
DESCASC
Racha de viento máxima en m/sg (hora)
DESCASC
Velocidad máxima media en intervalos de 10 minutos(hora)
DESCASC
Precipitaciones diarias en mm
DESCASC
Precipitaciones de 00:00 a 06:00 en mm
DESCASC
Precipitaciones de 06:00 a 12:00 en mm
DESCASC
Precipitaciones de 12:00 a 18:00 en mm
DESCASC
Precipitaciones de 18:00 a 24:00 en mm
DESCASC
22-01-2020 8.6 (14:10) 4.1 (04:50) 6.4 8.06 (11:50) 4.17 (11:50) 6.6 1.4 5.2 0 0
21-01-2020 7.8 (14:50) 3.1 (09:40) 5.5 14.72 (01:30) 7.78 (13:00) 0 0 0 0 0
20-01-2020 6.7 (15:50) 3.1 (08:20) 4.9 17.5 (17:30) 10.28 (01:20) 0 0 0 0 0
19-01-2020 10.3 (14:20) 3.9 (00:00) 7.1 13.89 (01:40) 8.89 (01:50) 0 0 0 0 0
18-01-2020 12.4 (16:10) 7.5 (00:00) 9.9 15 (23:20) 9.17 (23:20) 11.4 0 7 4.4 0
17-01-2020 14.2 (14:30) 6.6 (00:00) 10.4 6.67 (14:50) 3.89 (04:50) 0 0 0 0 0
16-01-2020 15.4 (14:50) 6.2 (00:00) 10.8 8.61 (15:30) 5.83 (15:30) 0 0 0 0 0
15-01-2020 13 (14:20) 4.2 (00:00) 8.6 9.72 (13:20) 6.11 (13:30) 0.2 0 0 0.2 0
14-01-2020 11.1 (15:30) -0.4 (00:00) 5.4 5.83 (22:30) 3.61 (22:30) 0 0 0 0 0
13-01-2020 12.3 (14:30) 0.8 (00:00) 6.6 5.83 (15:40) 3.33 (15:50) 0 0 0 0 0
12-01-2020 13.8 (15:30) 2.3 (00:00) 8.1 3.89 (16:50) 2.22 (16:50) 0 0 0 0 0
11-01-2020 12.3 (15:40) 1.6 (00:00) 7 5.56 (03:20) 3.33 (01:40) 0 0 0 0 0
10-01-2020 11.4 (16:10) 3 (00:00) 7.2 7.78 (02:50) 5.56 (02:30) 0 0 0 0 0
09-01-2020 13.1 (16:10) 2.3 (00:00) 7.7 6.94 (21:40) 5.56 (21:40) 0 0 0 0 0
08-01-2020 18.2 (16:20) 4.5 (00:00) 11.4 3.89 (21:00) 2.5 (21:20) 0 0 0 0 0
07-01-2020 15.4 (16:50) 2.5 (00:00) 8.9 4.44 (14:30) 2.78 (14:30) 0 0 0 0 0
06-01-2020 14.5 (16:20) 2.3 (00:00) 8.4 3.06 (20:30) 1.94 (21:40) 0 0 0 0 0
05-01-2020 13.2 (16:10) 1.7 (00:00) 7.4 3.61 (14:30) 2.22 (14:00) 0 0 0 0 0
04-01-2020 11.2 (15:50) 0.8 (00:00) 6 6.39 (17:10) 3.89 (16:50) 0 0 0 0 0
03-01-2020 10.6 (16:10) 3.7 (00:00) 7.2 5.28 (14:50) 3.33 (14:40) 0 0 0 0 0
02-01-2020 15.1 (15:40) 4.8 (00:00) 10 3.61 (11:20) 2.5 (11:20) 0 0 0 0 0
01-01-2020 15.9 (16:10) 3.6 (00:00) 9.7 2.78 (14:00) 1.67 (02:40) 0 0 0 0 0
31-12-2019 15 (16:10) 2.9 (00:00) 9 3.33 (14:10) 2.5 (00:30) 0 0 0 0 0
30-12-2019 14.4 (16:10) 2.9 (00:00) 8.6 4.44 (13:30) 2.78 (13:30) 0 0 0 0 0
29-12-2019 16.3 (16:50) 6.7 (00:00) 11.5 6.67 (12:50) 4.44 (12:50) 0 0 0 0 0
28-12-2019 19.4 (16:00) 6.6 (00:00) 13 3.33 (02:40) 2.78 (02:40) 0 0 0 0 0
27-12-2019 18.7 (16:00) 7.5 (00:00) 13.1 4.17 (14:20) 2.5 (04:40) 0 0 0 0 0
26-12-2019 15.9 (13:40) 8.3 (00:00) 12.1 5.28 (15:40) 3.33 (15:50) 0 0 0 0 0
25-12-2019 20.8 (15:10) 7.4 (00:00) 14.1 2.78 (16:00) 2.22 (00:30) 0 0 0 0 0

Gráficas

Temp. máximas Temp. mínimas Temp. medias Precipitaciones Rachas de viento máximas Velocidades máximas media en intervalos de 10 minutos

Datos horarios

Fecha y hora oficial Temperatura (ºC) Velocidad del viento (km/h) Dirección del viento Racha (km/h) Dirección de racha Precipitación (mm) Presión (hPa) Tendencia (hPa) Humedad (%)
2020-01-23 23:00:00 7.1 9 Sudeste 21 Este 0.4 -- -- 98
2020-01-23 22:00:00 7.2 12 Sudeste 23 Sudeste 0.6 -- -- 98
2020-01-23 21:00:00 7.1 9 Sudeste 18 Sudeste 1.4 -- -- 98
2020-01-23 20:00:00 7.2 10 Sudeste 22 Sudeste 1 -- -- 98
2020-01-23 19:00:00 6.4 6 Este 15 Este 1 -- -- 97
2020-01-23 18:00:00 6.2 6 Sudeste 14 Este 1.4 -- -- 96
2020-01-23 17:00:00 6.7 6 Sudeste 30 Sudoeste 2.4 -- -- 93
2020-01-23 16:00:00 8 14 Sudeste 26 Sudeste 0.6 -- -- 93
2020-01-23 15:00:00 7.8 15 Sudeste 27 Sudeste 0 -- -- 95
2020-01-23 14:00:00 7.5 11 Sudeste 29 Sudeste 0.2 -- -- 96
2020-01-23 13:00:00 7.2 17 Sudeste 30 Sudeste 0 -- -- 97
2020-01-23 12:00:00 6.9 12 Sudeste 30 Sudeste 0.6 -- -- 97
2020-01-23 11:00:00 6.6 14 Sudeste 26 Sudeste 0.2 -- -- 97
2020-01-23 10:00:00 6.4 18 Sudeste 29 Sudeste 0.2 -- -- 97
2020-01-23 09:00:00 6.3 14 Sudeste 30 Sudeste 0.2 -- -- 98
2020-01-23 08:00:00 6.2 14 Sudeste 26 Este 0 -- -- 98
2020-01-23 07:00:00 6.1 15 Sudeste 27 Sudeste 0 -- -- 98
2020-01-23 06:00:00 6 17 Sudeste 28 Sudeste 0.2 -- -- 97
2020-01-23 05:00:00 6.1 12 Sudeste 26 Sudeste 0 -- -- 97
2020-01-23 04:00:00 6.1 14 Sudeste 28 Sudeste 0 -- -- 97
2020-01-23 03:00:00 6.3 12 Sudeste 25 Sudeste 0 -- -- 97
2020-01-23 02:00:00 6.5 13 Sudeste 22 Sudeste 0 -- -- 96
2020-01-23 01:00:00 6.6 7 Sudeste 15 Este 0.2 -- -- 94
2020-01-23 00:00:00 6.8 9 Sudeste 17 Sudeste 0 -- -- 93
2020-01-22 23:00:00 6.9 9 Sudeste 19 Sudeste 0 -- -- 92
2020-01-22 22:00:00 7.3 10 Sudeste 21 Sudeste 0 -- -- 89
2020-01-22 21:00:00 7.7 12 Sudeste 22 Sudeste 0 -- -- 85
2020-01-22 20:00:00 7.4 6 Sudeste 13 Sudeste 0 -- -- 84
2020-01-22 19:00:00 7.8 6 Sudeste 13 Sudeste 0 -- -- 82
2020-01-22 18:00:00 8.1 7 Sudeste 18 Sudeste 0 -- -- 81
2020-01-22 17:00:00 8.5 10 Sudeste 22 Sudeste 0 -- -- 80
2020-01-22 16:00:00 8.5 9 Sudeste 20 Este 0 -- -- 81
2020-01-22 15:00:00 8.5 11 Sudeste 24 Sudeste 0 -- -- 81
2020-01-22 14:00:00 8.2 12 Sudeste 22 Sudeste 0 -- -- 87
2020-01-22 13:00:00 7 12 Sudeste 27 Sudeste 0 -- -- 96
2020-01-22 12:00:00 6 13 Sudeste 29 Sudeste 0.2 -- -- 98
2020-01-22 11:00:00 5.4 11 Sudeste 24 Sudeste 1 -- -- 98
2020-01-22 10:00:00 5.3 9 Sudeste 21 Sudeste 1 -- -- 97
2020-01-22 09:00:00 5.1 8 Sudeste 19 Este 1 -- -- 97
2020-01-22 08:00:00 4.7 8 Este 14 Este 1 -- -- 97
2020-01-22 07:00:00 4.6 6 Este 20 Este 1 -- -- 97
2020-01-22 06:00:00 4.2 8 Este 14 Nordeste 0.8 -- -- 96
2020-01-22 05:00:00 4.1 8 Este 16 Este 0.6 -- -- 95
2020-01-22 04:00:00 4.3 9 Nordeste 17 Nordeste 0 -- -- 93
2020-01-22 03:00:00 4.4 6 Este 13 Este 0 -- -- 91
2020-01-22 02:00:00 4.5 8 Nordeste 15 Nordeste 0 -- -- 90
2020-01-22 01:00:00 4.7 7 Este 14 Este 0 -- -- 88
2020-01-22 00:00:00 4.9 6 Este 22 Este 0 -- -- 87
2020-01-21 23:00:00 5.2 10 Este 21 Nordeste 0 -- -- 86
2020-01-21 22:00:00 5.8 11 Nordeste 24 Nordeste 0 -- -- 85
2020-01-21 21:00:00 6.1 11 Nordeste 19 Nordeste 0 -- -- 83
2020-01-21 20:00:00 5.8 9 Nordeste 20 Nordeste 0 -- -- 84
2020-01-21 19:00:00 5.9 9 Nordeste 30 Nordeste 0 -- -- 83
2020-01-21 18:00:00 6.8 14 Nordeste 30 Nordeste 0 -- -- 74
2020-01-21 17:00:00 7.1 15 Nordeste 31 Nordeste 0 -- -- 71
2020-01-21 16:00:00 7.4 15 Nordeste 34 Norte 0 -- -- 71
2020-01-21 15:00:00 7.5 19 Nordeste 40 Nordeste 0 -- -- 69
2020-01-21 14:00:00 6.9 20 Nordeste 47 Nordeste 0 -- -- 70
2020-01-21 13:00:00 -- 28 Nordeste 45 Nordeste 0 -- -- --
2020-01-21 12:00:00 6.2 23 Nordeste 38 Nordeste 0 -- -- 71
2020-01-21 11:00:00 4.5 14 Norte 27 Norte 0 -- -- 75
2020-01-21 10:00:00 3.8 10 Norte 18 Nordeste 0 -- -- 76
2020-01-21 09:00:00 4.4 15 Nordeste 32 Norte 0 -- -- 73
2020-01-21 08:00:00 4.6 13 Nordeste 22 Norte 0 -- -- 73
2020-01-21 07:00:00 4.7 10 Este 29 Este 0 -- -- 73
2020-01-21 06:00:00 4.6 10 Nordeste 30 Nordeste 0 -- -- 70
2020-01-21 05:00:00 4.8 17 Nordeste 36 Nordeste 0 -- -- 69
2020-01-21 04:00:00 5 25 Nordeste 44 Nordeste 0 -- -- 71
2020-01-21 03:00:00 5 26 Nordeste 44 Este 0 -- -- 73
2020-01-21 02:00:00 4.5 19 Nordeste 53 Nordeste 0 -- -- 74
2020-01-21 01:00:00 4.9 26 Nordeste 48 Nordeste 0 -- -- 73
2020-01-21 00:00:00 5.2 28 Nordeste 45 Nordeste 0 -- -- 73
2020-01-20 23:00:00 5.2 28 Nordeste 50 Nordeste 0 -- -- 74
2020-01-20 22:00:00 5.1 28 Nordeste 48 Nordeste 0 -- -- 74
2020-01-20 21:00:00 4.9 23 Nordeste 43 Nordeste 0 -- -- 74
2020-01-20 20:00:00 5.2 21 Nordeste 46 Nordeste 0 -- -- 73
2020-01-20 19:00:00 5 19 Nordeste 46 Nordeste 0 -- -- 72
2020-01-20 18:00:00 5.5 21 Nordeste 63 Nordeste 0 -- -- 66
2020-01-20 17:00:00 6.5 28 Nordeste 52 Nordeste 0 -- -- 61
2020-01-20 16:00:00 6.2 28 Nordeste 55 Nordeste 0 -- -- 60
2020-01-20 15:00:00 5.9 26 Nordeste 44 Nordeste 0 -- -- 63
2020-01-20 14:00:00 4.3 25 Nordeste 41 Nordeste 0 -- -- 67
2020-01-20 13:00:00 4.4 21 Nordeste 46 Nordeste 0 -- -- 65
2020-01-20 12:00:00 5.2 20 Nordeste 60 Nordeste 0 -- -- 61
2020-01-20 11:00:00 4.9 32 Nordeste 56 Nordeste 0 -- -- 58
2020-01-20 10:00:00 4.3 25 Nordeste 42 Nordeste 0 -- -- 59
2020-01-20 09:00:00 3.5 13 Nordeste 25 Nordeste 0 -- -- 60
2020-01-20 08:00:00 3.7 15 Nordeste 34 Nordeste 0 -- -- 60
2020-01-20 07:00:00 4 23 Nordeste 44 Nordeste 0 -- -- 55
2020-01-20 06:00:00 4.1 26 Nordeste 49 Nordeste 0 -- -- 57
2020-01-20 05:00:00 4 32 Nordeste 53 Nordeste 0 -- -- 58
2020-01-20 04:00:00 4.1 29 Nordeste 50 Nordeste 0 -- -- 59
2020-01-20 03:00:00 4.2 27 Nordeste 51 Nordeste 0 -- -- 60
2020-01-20 02:00:00 4.5 26 Nordeste 51 Nordeste 0 -- -- 58
2020-01-20 01:00:00 4.9 18 Nordeste 36 Este 0 -- -- 57
2020-01-20 00:00:00 5 15 Nordeste 25 Nordeste 0 -- -- 68
2020-01-19 23:00:00 4.1 13 Norte 25 Nordeste 0 -- -- 79
2020-01-19 22:00:00 4.8 12 Nordeste 37 Nordeste 0 -- -- 74
2020-01-19 21:00:00 5.8 15 Nordeste 33 Este 0 -- -- 70
2020-01-19 20:00:00 6.5 18 Este 41 Nordeste 0 -- -- 61
2020-01-19 19:00:00 8.4 23 Nordeste 41 Nordeste 0 -- -- 53
2020-01-19 18:00:00 8.5 18 Norte 39 Norte 0 -- -- 61
2020-01-19 17:00:00 9.3 23 Norte 40 Norte 0 -- -- 61
2020-01-19 16:00:00 9.4 19 Norte 37 Norte 0 -- -- 65
2020-01-19 15:00:00 9.5 19 Norte 37 Norte 0 -- -- 71
2020-01-19 14:00:00 9.8 21 Norte 37 Noroeste 0 -- -- 71
2020-01-19 13:00:00 9 17 Noroeste 32 Noroeste 0 -- -- 78
2020-01-19 12:00:00 8 17 Noroeste 31 Noroeste 0 -- -- 84
2020-01-19 11:00:00 7.3 19 Norte 33 Norte 0 -- -- 89
2020-01-19 10:00:00 6.5 19 Noroeste 33 Noroeste 0 -- -- 93
2020-01-19 09:00:00 6.4 17 Norte 30 Norte 0 -- -- 94
2020-01-19 08:00:00 6.6 19 Noroeste 39 Noroeste 0 -- -- 94
2020-01-19 07:00:00 6.4 29 Noroeste 48 Noroeste 0 -- -- 95
2020-01-19 06:00:00 6.3 27 Noroeste 45 Noroeste 0 -- -- 95
2020-01-19 05:00:00 6.3 21 Noroeste 45 Noroeste 0 -- -- 94
2020-01-19 04:00:00 6.1 26 Noroeste 45 Noroeste 0 -- -- 93
2020-01-19 03:00:00 7.1 25 Noroeste 46 Oeste 0 -- -- 90
2020-01-19 02:00:00 8 31 Noroeste 50 Oeste 0 -- -- 90
2020-01-19 01:00:00 8.4 21 Oeste 37 Oeste 0 -- -- 87
2020-01-19 00:00:00 8.9 25 Noroeste 54 Noroeste 0 -- -- 88
2020-01-18 23:00:00 10.3 26 Noroeste 48 Noroeste 0 -- -- 92
2020-01-18 22:00:00 10.2 19 Oeste 28 Oeste 0 -- -- 93
2020-01-18 21:00:00 10.7 17 Sudoeste 27 Sudoeste 0 -- -- 92
2020-01-18 20:00:00 10.8 16 Sudoeste 25 Sudoeste 0 -- -- 95
2020-01-18 19:00:00 11.3 12 Sudoeste 21 Oeste 0 -- -- 94
2020-01-18 18:00:00 12.2 9 Sudoeste 23 Sudoeste 0 -- -- 94
2020-01-18 17:00:00 12.1 13 Sudoeste 22 Sudoeste 0.2 -- -- 95
2020-01-18 16:00:00 12.3 14 Sudoeste 24 Sudoeste 0 -- -- 94
2020-01-18 15:00:00 11 10 Sur 26 Sudoeste 0.2 -- -- 96
2020-01-18 14:00:00 9.5 9 Sudeste 19 Sudeste 0.4 -- -- 97
2020-01-18 13:00:00 9.7 13 Sur 26 Sudeste 3.6 -- -- 97
2020-01-18 12:00:00 9.7 14 Sur 23 Sur 1.2 -- -- 97
2020-01-18 11:00:00 8.7 14 Sudeste 24 Sudeste 0.6 -- -- 96
2020-01-18 10:00:00 7.9 11 Sur 18 Sudeste 1 -- -- 96
2020-01-18 09:00:00 7.6 11 Sudeste 18 Sudeste 1.2 -- -- 96
2020-01-18 08:00:00 8 10 Sudeste 17 Sudeste 2 -- -- 92
2020-01-18 07:00:00 8.6 6 Sur 10 Sudeste 1 -- -- 87
2020-01-18 06:00:00 8.4 8 Sur 18 Sudeste 0 -- -- 86
2020-01-18 05:00:00 8.6 12 Sudeste 17 Sudeste 0 -- -- 83
2020-01-18 04:00:00 8.8 8 Sudeste 11 Sudeste 0 -- -- 82
2020-01-18 03:00:00 9 6 Sur 10 Sur 0 -- -- 81
2020-01-18 02:00:00 8.6 6 Sur 9 Sur 0 -- -- 83
2020-01-18 01:00:00 8.4 5 Sur 9 Sur 0 -- -- 84
2020-01-18 00:00:00 8.1 8 Sur 9 Sur 0 -- -- 86
2020-01-17 23:00:00 8 6 Sur 9 Sur 0 -- -- 85
2020-01-17 22:00:00 8.9 0 Calma 5 Norte 0 -- -- 79
2020-01-17 21:00:00 9.3 3 Norte 7 Norte 0 -- -- 78
2020-01-17 20:00:00 9.9 0 Calma 5 Oeste 0 -- -- 77
2020-01-17 19:00:00 10.6 2 Noroeste 8 Noroeste 0 -- -- 75
2020-01-17 18:00:00 11.7 7 Noroeste 13 Noroeste 0 -- -- 70
2020-01-17 17:00:00 13.8 8 Noroeste 17 Noroeste 0 -- -- 63
2020-01-17 16:00:00 13.6 10 Norte 23 Noroeste 0 -- -- 65
2020-01-17 15:00:00 13.8 11 Noroeste 24 Noroeste 0 -- -- 64
2020-01-17 14:00:00 13.8 5 Noroeste 12 Oeste 0 -- -- 69
2020-01-17 13:00:00 12 5 Noroeste 10 Oeste 0 -- -- 80
2020-01-17 12:00:00 10.1 5 Oeste 12 Noroeste 0 -- -- 92
2020-01-17 11:00:00 8.4 9 Noroeste 15 Noroeste 0 -- -- 98
2020-01-17 10:00:00 8.4 8 Oeste 12 Oeste 0 -- -- 97
2020-01-17 09:00:00 6.6 3 Noroeste 9 Oeste 0 -- -- 96
2020-01-17 08:00:00 7.2 0 Calma 6 Sudoeste 0 -- -- 95
2020-01-17 07:00:00 7.9 0 Calma 17 Sudoeste 0 -- -- 95
2020-01-17 06:00:00 8.8 11 Sur 16 Sur 0 -- -- 93
2020-01-17 05:00:00 9.7 12 Sudoeste 20 Sudoeste 0 -- -- 90
2020-01-17 04:00:00 10.3 14 Sudoeste 21 Sudoeste 0 -- -- 88
2020-01-17 03:00:00 10.4 12 Sur 21 Sur 0 -- -- 86
2020-01-17 02:00:00 10.3 10 Sur 16 Sur 0 -- -- 80
2020-01-17 01:00:00 10.2 8 Sur 16 Sudoeste 0 -- -- 77
2020-01-17 00:00:00 10.2 12 Sur 24 Sudoeste 0 -- -- 68
2020-01-16 23:00:00 9.4 6 Sudeste 14 Sudeste 0 -- -- 62
2020-01-16 22:00:00 9 8 Sudeste 15 Sudeste 0 -- -- 67
2020-01-16 21:00:00 8.9 7 Sudeste 11 Sudeste 0 -- -- 66
2020-01-16 20:00:00 9.4 6 Sudeste 12 Sur 0 -- -- 60
2020-01-16 19:00:00 10.4 6 Sur 15 Sur 0 -- -- 55
2020-01-16 18:00:00 12.2 10 Sur 18 Sur 0 -- -- 51
2020-01-16 17:00:00 14.2 13 Sudoeste 28 Sudoeste 0 -- -- 46
2020-01-16 16:00:00 14.7 17 Sudoeste 31 Sudoeste 0 -- -- 43
2020-01-16 15:00:00 15.4 15 Sudoeste 24 Sudoeste 0 -- -- 40
2020-01-16 14:00:00 14.5 6 Sur 17 Sur 0 -- -- 58
2020-01-16 13:00:00 12.2 8 Sudeste 15 Sudeste 0 -- -- 76
2020-01-16 12:00:00 10.2 9 Sudeste 17 Sudeste 0 -- -- 89
2020-01-16 11:00:00 8.6 10 Sudeste 15 Sudeste 0 -- -- 98
2020-01-16 10:00:00 7.1 9 Sur 15 Sudeste 0 -- -- 98
2020-01-16 09:00:00 6.5 10 Sudeste 15 Sudeste 0 -- -- 98
2020-01-16 08:00:00 7 12 Sur 19 Sur 0 -- -- 97
2020-01-16 07:00:00 7.4 11 Sudeste 16 Sudeste 0 -- -- 96
2020-01-16 06:00:00 7.9 8 Sudeste 19 Sur 0 -- -- 95
2020-01-16 05:00:00 7.9 10 Sur 18 Sur 0 -- -- 96
2020-01-16 04:00:00 7.7 8 Sudeste 15 Sudeste 0 -- -- 95
2020-01-16 03:00:00 8.3 9 Sudeste 14 Sudeste 0 -- -- 93
2020-01-16 02:00:00 8.8 8 Sudeste 15 Sudeste 0 -- -- 93
2020-01-16 01:00:00 8.8 7 Sudeste 13 Sur 0 -- -- 94
2020-01-16 00:00:00 9.2 9 Sudeste 17 Sur 0 -- -- 93
2020-01-15 23:00:00 9.4 11 Sudeste 18 Sudeste 0 -- -- 93
2020-01-15 22:00:00 9.4 11 Sudeste 17 Sudeste 0 -- -- 93
2020-01-15 21:00:00 9.7 9 Sudeste 15 Sudeste 0 -- -- 92
2020-01-15 20:00:00 9.8 9 Sudeste 14 Sudeste 0 -- -- 92
2020-01-15 19:00:00 10.4 8 Sudeste 15 Sur 0 -- -- 92
2020-01-15 18:00:00 10.7 6 Sur 18 Sur 0.2 -- -- 91
2020-01-15 17:00:00 11.7 12 Sur 25 Sudoeste 0 -- -- 85
2020-01-15 16:00:00 13 16 Sur 27 Sudoeste 0 -- -- 78
2020-01-15 15:00:00 12.4 19 Sudoeste 31 Sudoeste 0 -- -- 78
2020-01-15 14:00:00 12.7 22 Sudoeste 35 Sur 0 -- -- 75
2020-01-15 13:00:00 10.8 17 Sur 27 Sur 0 -- -- 81
2020-01-15 12:00:00 8.6 12 Sudeste 20 Sudeste 0 -- -- 81
2020-01-15 11:00:00 7.2 12 Sudeste 24 Sudeste 0 -- -- 84
2020-01-15 10:00:00 6.6 16 Sudeste 28 Sudeste 0 -- -- 87
2020-01-15 09:00:00 5 14 Sudeste 26 Sudeste 0 -- -- 90
2020-01-15 08:00:00 4.4 11 Sudeste 21 Sudeste 0 -- -- 92
2020-01-15 07:00:00 4.8 13 Sudeste 22 Sudeste 0 -- -- 93
2020-01-15 06:00:00 4.4 14 Sudeste 22 Sudeste 0 -- -- 93
2020-01-15 05:00:00 5.1 13 Sudeste 22 Sudeste 0 -- -- 92
2020-01-15 04:00:00 5.3 13 Sudeste 22 Sudeste 0 -- -- 90
2020-01-15 03:00:00 5.3 12 Sudeste 17 Sudeste 0 -- -- 89
2020-01-15 02:00:00 5.7 10 Sudeste 18 Sudeste 0 -- -- 89
2020-01-15 01:00:00 6.3 13 Sur 19 Sudeste 0 -- -- 86
2020-01-15 00:00:00 6.2 9 Sur 19 Sur 0 -- -- 85
2020-01-14 23:00:00 6.6 13 Sur 21 Sudeste 0 -- -- 82
2020-01-14 22:00:00 6.7 11 Sur 20 Sur 0 -- -- 79
2020-01-14 21:00:00 7.1 11 Sudeste 18 Sur 0 -- -- 77
2020-01-14 20:00:00 8 11 Sudeste 19 Sur 0 -- -- 76
2020-01-14 19:00:00 8.8 10 Sur 15 Sur 0 -- -- 76
2020-01-14 18:00:00 9.8 11 Sudoeste 17 Sur 0 -- -- 71
2020-01-14 17:00:00 10.5 12 Sudoeste 16 Sudoeste 0 -- -- 70
2020-01-14 16:00:00 10.8 10 Sudeste 17 Sudeste 0 -- -- 67
2020-01-14 15:00:00 10.7 10 Sudeste 17 Sudeste 0 -- -- 66
2020-01-14 14:00:00 9.8 9 Este 14 Sur 0 -- -- 75
2020-01-14 13:00:00 9 8 Sur 14 Sudeste 0 -- -- 76
2020-01-14 12:00:00 7 6 Sudeste 13 Sudeste 0 -- -- 90
2020-01-14 11:00:00 5.6 5 Sur 13 Sur 0 -- -- 98
2020-01-14 10:00:00 1.3 0 Calma 11 Sur 0 -- -- 97
2020-01-14 09:00:00 0.2 5 Sudeste 7 Sudeste 0 -- -- 98
2020-01-14 08:00:00 3.1 8 Sudeste 12 Sudeste 0 -- -- 97
2020-01-14 07:00:00 2.3 3 Sur 9 Sur 0 -- -- 92
2020-01-14 06:00:00 1.8 4 Sur 9 Noroeste 0 -- -- 95
2020-01-14 05:00:00 2.8 3 Sudeste 7 Sur 0 -- -- 92
2020-01-14 04:00:00 3.6 4 Oeste 8 Sudoeste 0 -- -- 85
2020-01-14 03:00:00 4.5 6 Sudoeste 10 Sudoeste 0 -- -- 94
2020-01-14 02:00:00 3.4 4 Sudoeste 13 Sudoeste 0 -- -- 90
2020-01-14 01:00:00 4.8 12 Sudoeste 15 Sudoeste 0 -- -- 91
2020-01-14 00:00:00 4.1 5 Oeste 8 Oeste 0 -- -- 91
2020-01-13 23:00:00 4.7 3 Sudoeste 9 Sur 0 -- -- 84
2020-01-13 22:00:00 6.1 7 Sur 11 Sur 0 -- -- 78
2020-01-13 21:00:00 5.8 7 Sur 15 Sur 0 -- -- 73
2020-01-13 20:00:00 7.1 2 Oeste 8 Oeste 0 -- -- 65
2020-01-13 19:00:00 8.2 4 Oeste 10 Oeste 0 -- -- 63
2020-01-13 18:00:00 10.6 3 Norte 9 Norte 0 -- -- 58
2020-01-13 17:00:00 11.6 5 Oeste 16 Oeste 0 -- -- 43
2020-01-13 16:00:00 12.2 12 Oeste 21 Oeste 0 -- -- 45
2020-01-13 15:00:00 12.2 7 Sudoeste 15 Sudoeste 0 -- -- 49
2020-01-13 14:00:00 11.8 6 Sudoeste 17 Sudoeste 0 -- -- 59
2020-01-13 13:00:00 9.9 5 Sudeste 11 Sur 0 -- -- 69
2020-01-13 12:00:00 8.3 9 Sudeste 14 Sudeste 0 -- -- 74
2020-01-13 11:00:00 7.4 9 Sudeste 13 Sudeste 0 -- -- 75
2020-01-13 10:00:00 5.8 3 Sudeste 9 Sudeste 0 -- -- 81
2020-01-13 09:00:00 3.2 5 Sudeste 8 Sudeste 0 -- -- 90
2020-01-13 08:00:00 0.9 0 Calma 6 Sudeste 0 -- -- 93
2020-01-13 07:00:00 2.3 4 Sudeste 5 Sudeste 0 -- -- 92
2020-01-13 06:00:00 2.5 0 Calma 3 Noroeste 0 -- -- 92
2020-01-13 05:00:00 2.4 3 Noroeste 4 Sudeste 0 -- -- 87
2020-01-13 04:00:00 3.2 2 Este 4 Este 0 -- -- 87
2020-01-13 03:00:00 3.2 0 Calma 2 Noroeste 0 -- -- 86
2020-01-13 02:00:00 4.1 2 Sudeste 4 Sudeste 0 -- -- 82
2020-01-13 01:00:00 4.7 3 Sudeste 6 Sudeste 0 -- -- 80
2020-01-13 00:00:00 4.8 3 Sur 6 Sur 0 -- -- 77
2020-01-12 23:00:00 5.2 0 Calma 5 Norte 0 -- -- 78
2020-01-12 22:00:00 5.2 3 Norte 7 Noroeste 0 -- -- 79
2020-01-12 21:00:00 5.7 4 Norte 7 Norte 0 -- -- 78
2020-01-12 20:00:00 6.7 3 Noroeste 6 Norte 0 -- -- 74
2020-01-12 19:00:00 8.6 4 Noroeste 9 Norte 0 -- -- 65
2020-01-12 18:00:00 11.8 3 Noroeste 8 Nordeste 0 -- -- 50
2020-01-12 17:00:00 12.4 7 Norte 14 Norte 0 -- -- 47
2020-01-12 16:00:00 13.1 5 Norte 12 Noroeste 0 -- -- 45
2020-01-12 15:00:00 13.1 2 Sudeste 8 Oeste 0 -- -- 45
2020-01-12 14:00:00 12.2 3 Norte 9 Este 0 -- -- 53
2020-01-12 13:00:00 12 3 Sur 8 Oeste 0 -- -- 53
2020-01-12 12:00:00 10.1 2 Norte 5 Noroeste 0 -- -- 64
2020-01-12 11:00:00 7.7 2 Nordeste 5 Sudeste 0 -- -- 78
2020-01-12 10:00:00 4.8 0 Calma 5 Sudeste 0 -- -- 78
2020-01-12 09:00:00 3.2 3 Este 8 Sudeste 0 -- -- 82
2020-01-12 08:00:00 2.4 0 Calma 4 Norte 0 -- -- 87
2020-01-12 07:00:00 2.4 2 Norte 5 Nordeste 0 -- -- 87
2020-01-12 06:00:00 3 2 Oeste 3 Oeste 0 -- -- 85
2020-01-12 05:00:00 3.5 0 Calma 4 Oeste 0 -- -- 84
2020-01-12 04:00:00 3.2 3 Oeste 5 Oeste 0 -- -- 85
2020-01-12 03:00:00 3.1 3 Oeste 5 Noroeste 0 -- -- 84
2020-01-12 02:00:00 3.4 2 Norte 5 Noroeste 0 -- -- 83
2020-01-12 01:00:00 3.5 3 Noroeste 6 Oeste 0 -- -- 83
2020-01-12 00:00:00 3.7 4 Oeste 5 Oeste 0 -- -- 80
2020-01-11 23:00:00 4.8 2 Noroeste 6 Noroeste 0 -- -- 78
2020-01-11 22:00:00 4.7 4 Noroeste 8 Noroeste 0 -- -- 78
2020-01-11 21:00:00 5.8 3 Noroeste 5 Norte 0 -- -- 72
2020-01-11 20:00:00 6.9 3 Nordeste 9 Nordeste 0 -- -- 69
2020-01-11 19:00:00 8.3 2 Norte 9 Nordeste 0 -- -- 64
2020-01-11 18:00:00 10.1 6 Nordeste 13 Norte 0 -- -- 60
2020-01-11 17:00:00 11.8 6 Nordeste 14 Nordeste 0 -- -- 47
2020-01-11 16:00:00 12.2 7 Nordeste 14 Este 0 -- -- 50
2020-01-11 15:00:00 11.9 8 Nordeste 16 Este 0 -- -- 52
2020-01-11 14:00:00 11.3 9 Nordeste 16 Este 0 -- -- 52
2020-01-11 13:00:00 10.6 10 Este 19 Este 0 -- -- 55
2020-01-11 12:00:00 8.9 6 Este 17 Nordeste 0 -- -- 63
2020-01-11 11:00:00 6.4 10 Nordeste 19 Nordeste 0 -- -- 71
2020-01-11 10:00:00 3.8 9 Nordeste 13 Nordeste 0 -- -- 76
2020-01-11 09:00:00 2.5 5 Nordeste 14 Este 0 -- -- 77
2020-01-11 08:00:00 2.3 5 Norte 15 Nordeste 0 -- -- 77
2020-01-11 07:00:00 2.7 4 Sudeste 15 Nordeste 0 -- -- 77
2020-01-11 06:00:00 1.7 4 Nordeste 7 Nordeste 0 -- -- 79
2020-01-11 05:00:00 2.6 2 Norte 7 Este 0 -- -- 76
2020-01-11 04:00:00 4.7 5 Nordeste 20 Este 0 -- -- 68
2020-01-11 03:00:00 5.5 9 Este 19 Este 0 -- -- 65
2020-01-11 02:00:00 4.4 8 Nordeste 17 Nordeste 0 -- -- 69
2020-01-11 01:00:00 4.7 9 Nordeste 17 Nordeste 0 -- -- 68
2020-01-11 00:00:00 4.6 12 Nordeste 16 Nordeste 0 -- -- 70
2020-01-10 23:00:00 5 9 Nordeste 15 Nordeste 0 -- -- 68
2020-01-10 22:00:00 5.4 8 Norte 14 Nordeste 0 -- -- 72
2020-01-10 21:00:00 5.9 10 Nordeste 16 Norte 0 -- -- 75
2020-01-10 20:00:00 6.4 9 Norte 14 Nordeste 0 -- -- 77
2020-01-10 19:00:00 7 8 Norte 18 Norte 0 -- -- 80
2020-01-10 18:00:00 9.4 13 Norte 20 Nordeste 0 -- -- 72
2020-01-10 17:00:00 10.4 13 Nordeste 24 Nordeste 0 -- -- 63
2020-01-10 16:00:00 11.1 13 Nordeste 28 Nordeste 0 -- -- 65
2020-01-10 15:00:00 11 14 Nordeste 27 Nordeste 0 -- -- 71
2020-01-10 14:00:00 10.1 12 Nordeste 23 Nordeste 0 -- -- 73
2020-01-10 13:00:00 8.2 8 Norte 15 Norte 0 -- -- 79
2020-01-10 12:00:00 6.1 6 Norte 13 Noroeste 0 -- -- 87
2020-01-10 11:00:00 4.1 9 Norte 21 Noroeste 0 -- -- 98
2020-01-10 10:00:00 3.1 15 Noroeste 20 Noroeste 0 -- -- 98
2020-01-10 09:00:00 3.2 12 Noroeste 19 Noroeste 0 -- -- 97
2020-01-10 08:00:00 4.1 14 Noroeste 19 Noroeste 0 -- -- 97
2020-01-10 07:00:00 5.1 14 Noroeste 21 Noroeste 0 -- -- 96
2020-01-10 06:00:00 6.1 12 Noroeste 20 Noroeste 0 -- -- 95
2020-01-10 05:00:00 6.7 13 Noroeste 21 Noroeste 0 -- -- 95
2020-01-10 04:00:00 7.2 13 Noroeste 27 Noroeste 0 -- -- 94
2020-01-10 03:00:00 8.3 19 Noroeste 28 Noroeste 0 -- -- 91
2020-01-10 02:00:00 8.9 10 Noroeste 19 Noroeste 0 -- -- 94
2020-01-10 01:00:00 8.2 10 Oeste 20 Oeste 0 -- -- 94
2020-01-10 00:00:00 7.4 9 Oeste 17 Noroeste 0 -- -- 93
2020-01-09 23:00:00 5.4 10 Oeste 18 Noroeste 0 -- -- 91
2020-01-09 22:00:00 6.7 13 Noroeste 25 Noroeste 0 -- -- 86
2020-01-09 21:00:00 6.6 11 Oeste 16 Oeste 0 -- -- 86
2020-01-09 20:00:00 7.7 8 Oeste 16 Oeste 0 -- -- 81
2020-01-09 19:00:00 8.8 8 Oeste 12 Oeste 0 -- -- 77
2020-01-09 18:00:00 11.2 6 Oeste 12 Oeste 0 -- -- 68
2020-01-09 17:00:00 12.8 5 Noroeste 13 Noroeste 0 -- -- 60
2020-01-09 16:00:00 12.8 5 Noroeste 23 Noroeste 0 -- -- 58
2020-01-09 15:00:00 12.5 14 Noroeste 23 Noroeste 0 -- -- 58
2020-01-09 14:00:00 12.7 11 Oeste 20 Noroeste 0 -- -- 60
2020-01-09 13:00:00 11.8 8 Sudoeste 12 Oeste 0 -- -- 69
2020-01-09 12:00:00 9.4 6 Sudeste 12 Sudeste 0 -- -- 75
2020-01-09 11:00:00 7.4 0 Calma 6 Sudeste 0 -- -- 84
2020-01-09 10:00:00 5.9 3 Este 9 Sudeste 0 -- -- 85
2020-01-09 09:00:00 3.6 6 Este 9 Este 0 -- -- 91
2020-01-09 08:00:00 3 0 Calma 4 Norte 0 -- -- 93
2020-01-09 07:00:00 2.4 2 Norte 7 Este 0 -- -- 90
2020-01-09 06:00:00 3.7 4 Sudeste 6 Sudeste 0 -- -- 87
2020-01-09 05:00:00 4.1 2 Sudeste 5 Sudoeste 0 -- -- 83
2020-01-09 04:00:00 5.3 5 Oeste 12 Sudoeste 0 -- -- 81
2020-01-09 03:00:00 5.4 5 Oeste 10 Oeste 0 -- -- 85
2020-01-09 02:00:00 5.1 7 Oeste 9 Oeste 0 -- -- 88
2020-01-09 01:00:00 5.9 9 Oeste 11 Oeste 0 -- -- 83
2020-01-09 00:00:00 6.2 8 Oeste 10 Oeste 0 -- -- 84
2020-01-08 23:00:00 6.6 4 Oeste 11 Oeste 0 -- -- 80
2020-01-08 22:00:00 7.4 8 Oeste 13 Noroeste 0 -- -- 74
2020-01-08 21:00:00 7.8 7 Oeste 14 Oeste 0 -- -- 71
2020-01-08 20:00:00 9.8 5 Noroeste 9 Oeste 0 -- -- 58
2020-01-08 19:00:00 12 4 Oeste 6 Noroeste 0 -- -- 47
2020-01-08 18:00:00 15.5 3 Noroeste 6 Noroeste 0 -- -- 39
2020-01-08 17:00:00 17.2 4 Noroeste 8 Oeste 0 -- -- 37
2020-01-08 16:00:00 17.5 5 Noroeste 8 Noroeste 0 -- -- 34
2020-01-08 15:00:00 16.9 4 Noroeste 8 Noroeste 0 -- -- 35
2020-01-08 14:00:00 16 4 Norte 9 Noroeste 0 -- -- 45
2020-01-08 13:00:00 14.6 2 Norte 5 Noroeste 0 -- -- 47
2020-01-08 12:00:00 12.4 3 Oeste 5 Noroeste 0 -- -- 66
2020-01-08 11:00:00 10.5 3 Este 5 Este 0 -- -- 69
2020-01-08 10:00:00 6.6 2 Oeste 3 Oeste 0 -- -- 84
2020-01-08 09:00:00 4.5 2 Oeste 3 Oeste 0 -- -- 90
2020-01-08 08:00:00 5.5 0 Calma 4 Noroeste 0 -- -- 87
2020-01-08 07:00:00 5.1 3 Oeste 8 Noroeste 0 -- -- 90
2020-01-08 06:00:00 4.9 5 Oeste 7 Oeste 0 -- -- 88
2020-01-08 05:00:00 5.1 4 Oeste 6 Noroeste 0 -- -- 86
2020-01-08 04:00:00 5.9 2 Noroeste 6 Oeste 0 -- -- 85
2020-01-08 03:00:00 6.4 4 Oeste 8 Oeste 0 -- -- 81
2020-01-08 02:00:00 6.8 7 Oeste 9 Oeste 0 -- -- 86
2020-01-08 01:00:00 6.3 6 Oeste 10 Oeste 0 -- -- 88
2020-01-08 00:00:00 6.6 7 Oeste 10 Oeste 0 -- -- 87
2020-01-07 23:00:00 6.8 6 Oeste 10 Noroeste 0 -- -- 84
2020-01-07 22:00:00 7 6 Oeste 9 Noroeste 0 -- -- 81
2020-01-07 21:00:00 8.6 6 Oeste 9 Oeste 0 -- -- 75
2020-01-07 20:00:00 9.5 5 Noroeste 9 Noroeste 0 -- -- 70
2020-01-07 19:00:00 11.7 2 Noroeste 5 Noroeste 0 -- -- 71
2020-01-07 18:00:00 14.1 2 Norte 8 Norte 0 -- -- 65
2020-01-07 17:00:00 15.2 5 Norte 14 Nordeste 0 -- -- 60
2020-01-07 16:00:00 15.2 8 Norte 15 Norte 0 -- -- 57
2020-01-07 15:00:00 14.9 9 Nordeste 16 Norte 0 -- -- 53
2020-01-07 14:00:00 14.3 8 Nordeste 13 Norte 0 -- -- 59
2020-01-07 13:00:00 13 5 Norte 9 Nordeste 0 -- -- 62
2020-01-07 12:00:00 10.8 4 Nordeste 8 Norte 0 -- -- 71
2020-01-07 11:00:00 8.9 4 Norte 10 Nordeste 0 -- -- 83
2020-01-07 10:00:00 6.1 4 Este 9 Norte 0 -- -- 87
2020-01-07 09:00:00 3.1 3 Norte 8 Nordeste 0 -- -- 93
2020-01-07 08:00:00 3 5 Nordeste 8 Nordeste 0 -- -- 95
2020-01-07 07:00:00 2.7 3 Oeste 9 Norte 0 -- -- 89
2020-01-07 06:00:00 3.6 5 Nordeste 9 Nordeste 0 -- -- 93
2020-01-07 05:00:00 3.5 0 Calma 5 Noroeste 0 -- -- 94
2020-01-07 04:00:00 3.9 3 Norte 7 Nordeste 0 -- -- 91
2020-01-07 03:00:00 4.1 2 Nordeste 9 Noroeste 0 -- -- 95
2020-01-07 02:00:00 4.8 3 Noroeste 7 Noroeste 0 -- -- 81
2020-01-07 01:00:00 5.3 2 Noroeste 6 Noroeste 0 -- -- 90
2020-01-07 00:00:00 5.5 5 Noroeste 8 Noroeste 0 -- -- 90
2020-01-06 23:00:00 5.3 5 Noroeste 9 Noroeste 0 -- -- 89
2020-01-06 22:00:00 5.8 6 Noroeste 10 Noroeste 0 -- -- 86
2020-01-06 21:00:00 6.9 5 Oeste 11 Oeste 0 -- -- 78
2020-01-06 20:00:00 9.4 0 Calma 8 Noroeste 0 -- -- 65
2020-01-06 19:00:00 9.9 4 Noroeste 5 Noroeste 0 -- -- 71
2020-01-06 18:00:00 12.6 3 Nordeste 8 Nordeste 0 -- -- 61
2020-01-06 17:00:00 14 3 Nordeste 7 Noroeste 0 -- -- 58
2020-01-06 16:00:00 14.2 3 Norte 8 Este 0 -- -- 59
2020-01-06 15:00:00 14.1 5 Este 10 Este 0 -- -- 60
2020-01-06 14:00:00 13.2 2 Oeste 6 Noroeste 0 -- -- 64
2020-01-06 13:00:00 11.2 5 Noroeste 8 Noroeste 0 -- -- 75
2020-01-06 12:00:00 10.7 0 Calma -- -- 0 -- -- 73
2020-01-06 11:00:00 6.5 0 Calma -- -- 0 -- -- 89
2020-01-06 10:00:00 4.1 0 Calma -- -- 0 -- -- 96